createdAt,value
2023-02-12T00:01:38.151Z,60.10
2023-02-12T00:04:44.149Z,64.63
2023-02-12T00:07:49.726Z,64.72
2023-02-12T00:10:55.602Z,63.47
2023-02-12T00:14:03.428Z,61.50
2023-02-12T00:17:09.122Z,60.78
2023-02-12T00:20:14.773Z,62.22
2023-02-12T00:23:20.408Z,54.20
2023-02-12T00:26:26.020Z,66.85
2023-02-12T00:29:31.566Z,65.28
2023-02-12T00:32:37.574Z,65.78
2023-02-12T00:35:43.335Z,66.10
2023-02-12T00:38:52.169Z,57.88
2023-02-12T00:41:57.565Z,66.18
2023-02-12T00:45:03.048Z,65.22
2023-02-12T00:48:10.278Z,61.42
2023-02-12T00:51:16.112Z,64.60
2023-02-12T00:54:22.136Z,64.53
2023-02-12T00:57:27.822Z,64.38
2023-02-12T01:00:35.255Z,62.55
2023-02-12T01:03:41.676Z,66.30
2023-02-12T01:06:47.357Z,71.35
2023-02-12T01:09:52.988Z,65.85
2023-02-12T01:12:58.502Z,68.97
2023-02-12T01:16:20.433Z,71.40
2023-02-12T01:19:26.002Z,64.80
2023-02-12T01:22:31.779Z,65.70
2023-02-12T01:25:38.967Z,68.20
2023-02-12T01:28:48.727Z,60.05
2023-02-12T01:31:54.768Z,59.17
2023-02-12T01:35:00.570Z,59.35
2023-02-12T01:38:05.949Z,69.57
2023-02-12T01:41:15.537Z,67.38
2023-02-12T01:44:29.246Z,67.15
2023-02-12T01:47:35.312Z,79.03
2023-02-12T01:50:44.507Z,72.20
2023-02-12T01:53:55.691Z,85.07
2023-02-12T01:57:03.385Z,73.95
2023-02-12T02:00:21.047Z,80.13
2023-02-12T02:03:27.064Z,74.35
2023-02-12T02:06:36.684Z,75.95
2023-02-12T02:09:42.705Z,75.18
2023-02-12T02:13:07.556Z,73.70
2023-02-12T02:16:23.767Z,69.57
2023-02-12T02:20:01.935Z,70.05
2023-02-12T02:23:42.225Z,71.85
2023-02-12T02:27:11.978Z,64.15
2023-02-12T02:30:26.239Z,67.38
2023-02-12T02:34:02.583Z,67.57
2023-02-12T02:37:40.237Z,62.97
2023-02-12T02:41:09.813Z,68.03
2023-02-12T02:44:23.911Z,70.72
2023-02-12T02:47:54.061Z,70.57
2023-02-12T02:51:07.877Z,62.63
2023-02-12T02:54:31.238Z,67.88
2023-02-12T02:57:47.600Z,62.03
2023-02-12T03:01:02.263Z,65.40
2023-02-12T03:04:18.939Z,63.05
2023-02-12T03:07:35.152Z,73.32
2023-02-12T03:10:49.284Z,63.90
2023-02-12T03:14:06.931Z,70.55
2023-02-12T03:17:35.268Z,67.10
2023-02-12T03:20:46.358Z,67.32
2023-02-12T03:24:05.391Z,67.35
2023-02-12T03:27:27.235Z,71.63
2023-02-12T03:30:58.623Z,70.18
2023-02-12T03:34:24.603Z,63.72
2023-02-12T03:37:30.049Z,77.88
2023-02-12T03:40:40.968Z,71.78
2023-02-12T03:44:27.471Z,68.73
2023-02-12T03:47:45.654Z,64.55
2023-02-12T03:50:59.201Z,68.43
2023-02-12T03:54:07.975Z,66.70
2023-02-12T03:57:21.953Z,81.68
2023-02-12T04:00:28.510Z,72.25
2023-02-12T04:03:34.240Z,73.85
2023-02-12T04:06:40.547Z,67.32
2023-02-12T04:09:46.279Z,68.93
2023-02-12T04:13:21.654Z,71.85
2023-02-12T04:16:37.984Z,63.60
2023-02-12T04:20:08.994Z,71.22
2023-02-12T04:23:18.354Z,69.30
2023-02-12T04:26:42.343Z,63.97
2023-02-12T04:30:06.167Z,62.95
2023-02-12T04:33:19.258Z,70.63
2023-02-12T04:36:33.234Z,65.53
2023-02-12T04:39:41.461Z,62.42
2023-02-12T04:42:49.704Z,72.68
2023-02-12T04:45:55.623Z,75.13
2023-02-12T04:49:01.466Z,72.57
2023-02-12T04:52:07.714Z,70.53
2023-02-12T04:55:13.076Z,74.55
2023-02-12T04:58:19.257Z,78.90
2023-02-12T05:01:25.180Z,73.70
2023-02-12T05:04:30.740Z,72.32
2023-02-12T05:07:36.283Z,72.97
2023-02-12T05:10:41.863Z,74.53
2023-02-12T05:13:53.906Z,67.82
2023-02-12T05:20:05.617Z,72.75
2023-02-12T05:23:11.351Z,73.22
2023-02-12T05:26:20.803Z,72.25
2023-02-12T05:29:26.391Z,76.60
2023-02-12T05:32:32.028Z,78.55
2023-02-12T05:35:37.852Z,77.97
2023-02-12T05:38:43.861Z,82.47
2023-02-12T05:41:49.270Z,86.80
2023-02-12T05:44:54.816Z,76.30
2023-02-12T05:48:00.659Z,84.13
2023-02-12T05:51:27.658Z,79.63
2023-02-12T05:54:33.091Z,74.13
2023-02-12T05:57:38.362Z,81.95
2023-02-12T06:00:43.802Z,76.05
2023-02-12T06:03:49.087Z,78.47
2023-02-12T06:06:56.007Z,80.65
2023-02-12T06:10:01.399Z,75.25
2023-02-12T06:13:06.889Z,72.38
2023-02-12T06:16:23.441Z,76.38
2023-02-12T06:19:29.054Z,78.40
2023-02-12T06:22:34.723Z,75.55
2023-02-12T06:25:40.245Z,77.55
2023-02-12T06:28:46.010Z,73.35
2023-02-12T06:31:51.871Z,81.72
2023-02-12T06:34:57.534Z,69.90
2023-02-12T06:38:03.226Z,86.35
2023-02-12T06:41:09.059Z,84.38
2023-02-12T06:44:14.524Z,74.25
2023-02-12T06:47:19.899Z,74.40
2023-02-12T06:50:25.564Z,85.55
2023-02-12T06:53:30.690Z,85.45
2023-02-12T06:56:37.123Z,81.55
2023-02-12T06:59:42.560Z,90.40
2023-02-12T07:02:54.460Z,77.93
2023-02-12T07:06:00.297Z,85.25
2023-02-12T07:09:06.528Z,76.85
2023-02-12T07:12:12.179Z,79.40
2023-02-12T07:15:17.659Z,85.47
2023-02-12T07:18:23.087Z,82.75
2023-02-12T07:21:28.355Z,82.97
2023-02-12T07:24:33.419Z,82.30
2023-02-12T07:27:38.734Z,83.45
2023-02-12T07:30:43.945Z,86.85
2023-02-12T07:33:53.856Z,79.97
2023-02-12T07:36:59.337Z,81.25
2023-02-12T07:40:05.231Z,85.72
2023-02-12T07:43:10.869Z,83.80
2023-02-12T07:46:23.009Z,83.25
2023-02-12T07:49:28.741Z,82.70
2023-02-12T07:52:34.470Z,89.70
2023-02-12T07:55:40.080Z,93.13
2023-02-12T07:58:48.269Z,91.35
2023-02-12T08:01:53.978Z,91.20
2023-02-12T08:04:59.709Z,89.68
2023-02-12T08:08:04.876Z,85.63
2023-02-12T08:11:11.743Z,92.00
2023-02-12T08:14:20.070Z,103.18
2023-02-12T08:17:25.679Z,87.65
2023-02-12T08:20:30.794Z,95.72
2023-02-12T08:23:35.990Z,86.78
2023-02-12T08:26:41.456Z,90.68
2023-02-12T08:29:47.589Z,89.93
2023-02-12T08:32:53.002Z,92.65
2023-02-12T08:36:10.292Z,96.05
2023-02-12T08:39:16.809Z,84.10
2023-02-12T08:42:23.310Z,89.30
2023-02-12T08:45:28.717Z,98.45
2023-02-12T08:48:34.692Z,97.00
2023-02-12T08:51:43.896Z,91.68
2023-02-12T08:54:49.437Z,96.90
2023-02-12T08:57:58.157Z,93.43
2023-02-12T09:01:05.735Z,110.47
2023-02-12T09:04:18.397Z,91.43
2023-02-12T09:07:23.834Z,94.70
2023-02-12T09:10:29.275Z,98.50
2023-02-12T09:13:34.953Z,95.68
2023-02-12T09:16:40.763Z,114.18
2023-02-12T09:19:46.252Z,90.85
2023-02-12T09:22:51.884Z,84.95
2023-02-12T09:25:57.864Z,85.10
2023-02-12T09:29:04.416Z,87.65
2023-02-12T09:32:10.853Z,78.88
2023-02-12T09:35:16.316Z,80.85
2023-02-12T09:38:21.997Z,80.28
2023-02-12T09:41:44.335Z,81.35
2023-02-12T09:45:08.132Z,83.07
2023-02-12T09:48:35.515Z,83.07
2023-02-12T09:51:44.476Z,73.40
2023-02-12T09:54:50.784Z,85.15
2023-02-12T09:57:56.120Z,76.50
2023-02-12T10:01:05.758Z,82.55
2023-02-12T10:04:12.133Z,78.72
2023-02-12T10:07:17.536Z,70.78
2023-02-12T10:10:40.619Z,75.38
2023-02-12T10:14:20.027Z,72.82
2023-02-12T10:17:42.508Z,72.20
2023-02-12T10:21:13.261Z,69.38
2023-02-12T10:24:43.500Z,76.32
2023-02-12T10:27:56.425Z,76.20
2023-02-12T10:31:13.375Z,70.90
2023-02-12T10:34:22.999Z,68.82
2023-02-12T10:37:55.622Z,74.47
2023-02-12T10:41:02.971Z,71.15
2023-02-12T10:44:11.037Z,64.30
2023-02-12T10:47:22.046Z,67.30
2023-02-12T10:51:12.697Z,65.78
2023-02-12T10:54:42.910Z,65.10
2023-02-12T10:57:48.237Z,65.18
2023-02-12T11:01:00.136Z,63.10
2023-02-12T11:04:23.617Z,70.40
2023-02-12T11:07:29.619Z,66.90
2023-02-12T11:10:42.332Z,64.07
2023-02-12T11:14:04.793Z,61.13
2023-02-12T11:17:52.263Z,55.17
2023-02-12T11:21:01.461Z,60.15
2023-02-12T11:24:35.832Z,56.90
2023-02-12T11:27:42.205Z,55.92
2023-02-12T11:30:58.705Z,61.75
2023-02-12T11:34:10.811Z,56.85
2023-02-12T11:37:20.188Z,57.20
2023-02-12T11:40:36.318Z,58.20
2023-02-12T11:43:41.848Z,50.67
2023-02-12T11:46:55.773Z,55.13
2023-02-12T11:50:26.703Z,54.67
2023-02-12T11:53:40.543Z,60.25
2023-02-12T11:56:47.301Z,64.40
2023-02-12T11:59:54.553Z,57.35
2023-02-12T12:03:47.863Z,61.88
2023-02-12T12:07:03.851Z,52.70
2023-02-12T12:11:11.200Z,57.80
2023-02-12T12:14:24.899Z,51.00
2023-02-12T12:18:02.724Z,52.00
2023-02-12T12:21:30.989Z,46.67
2023-02-12T12:24:56.855Z,49.30
2023-02-12T12:28:29.256Z,49.70
2023-02-12T12:31:44.830Z,56.85
2023-02-12T12:34:50.344Z,53.72
2023-02-12T12:38:05.334Z,49.28
2023-02-12T12:41:34.707Z,60.30
2023-02-12T12:44:42.662Z,58.22
2023-02-12T12:48:12.289Z,58.20
2023-02-12T12:51:23.592Z,51.83
2023-02-12T12:54:45.392Z,59.28
2023-02-12T12:58:04.940Z,51.38
2023-02-12T13:01:37.770Z,55.83
2023-02-12T13:04:51.675Z,59.97
2023-02-12T13:08:07.135Z,56.30
2023-02-12T13:11:44.700Z,60.40
2023-02-12T13:15:13.401Z,64.78
2023-02-12T13:18:41.862Z,62.22
2023-02-12T13:22:17.554Z,61.33
2023-02-12T13:25:31.275Z,60.72
2023-02-12T13:28:55.360Z,61.17
2023-02-12T13:32:15.619Z,59.03
2023-02-12T13:35:26.539Z,57.85
2023-02-12T13:39:10.315Z,57.15
2023-02-12T13:42:51.297Z,59.33
2023-02-12T13:46:04.469Z,56.17
2023-02-12T13:49:34.141Z,42.10
2023-02-12T13:52:57.845Z,36.42
2023-02-12T13:56:09.424Z,36.67
2023-02-12T13:59:35.841Z,36.75
2023-02-12T14:02:43.980Z,32.45
2023-02-12T14:05:49.482Z,31.23
2023-02-12T14:09:10.324Z,33.17
2023-02-12T14:12:24.836Z,32.35
2023-02-12T14:15:36.577Z,32.38
2023-02-12T14:18:41.836Z,33.60
2023-02-12T14:21:47.110Z,30.70
2023-02-12T14:24:57.338Z,33.15
2023-02-12T14:28:43.823Z,37.38
2023-02-12T14:31:49.697Z,36.92
2023-02-12T14:34:55.222Z,33.38
2023-02-12T14:38:04.168Z,39.45
2023-02-12T14:41:38.791Z,39.35
2023-02-12T14:44:56.394Z,40.65
2023-02-12T14:48:03.287Z,33.72
2023-02-12T14:51:17.993Z,41.50
2023-02-12T14:54:57.852Z,42.00
2023-02-12T14:58:18.184Z,42.30
2023-02-12T15:01:34.173Z,38.40
2023-02-12T15:04:45.441Z,38.35
2023-02-12T15:07:59.005Z,39.78
2023-02-12T15:11:15.252Z,37.03
2023-02-12T15:14:46.261Z,34.33
2023-02-12T15:18:00.722Z,32.35
2023-02-12T15:21:25.138Z,37.97
2023-02-12T15:24:30.650Z,37.85
2023-02-12T15:27:36.169Z,35.70
2023-02-12T15:30:43.531Z,36.38
2023-02-12T15:33:52.467Z,37.97
2023-02-12T15:36:59.946Z,40.55
2023-02-12T15:40:09.801Z,35.60
2023-02-12T15:43:19.498Z,34.30
2023-02-12T15:46:25.279Z,35.30
2023-02-12T15:49:36.803Z,35.45
2023-02-12T15:52:46.021Z,33.50
2023-02-12T15:55:52.494Z,34.10
2023-02-12T15:59:01.195Z,37.17
2023-02-12T16:02:21.540Z,35.50
2023-02-12T16:05:27.595Z,34.70
2023-02-12T16:08:36.158Z,37.08
2023-02-12T16:11:44.608Z,33.20
2023-02-12T16:14:55.916Z,37.85
2023-02-12T16:18:04.531Z,37.88
2023-02-12T16:21:18.783Z,35.28
2023-02-12T16:24:34.060Z,35.63
2023-02-12T16:27:40.640Z,45.88
2023-02-12T16:30:48.648Z,38.67
2023-02-12T16:33:59.641Z,34.85
2023-02-12T16:37:45.559Z,39.60
2023-02-12T16:41:09.367Z,38.40
2023-02-12T16:44:17.202Z,37.20
2023-02-12T16:47:25.153Z,42.75
2023-02-12T16:50:32.743Z,35.63
2023-02-12T16:53:43.955Z,38.92
2023-02-12T16:56:49.992Z,39.97
2023-02-12T16:59:55.378Z,37.95
2023-02-12T17:03:00.982Z,38.92
2023-02-12T17:06:06.382Z,39.78
2023-02-12T17:09:12.174Z,39.53
2023-02-12T17:12:17.940Z,42.75
2023-02-12T17:15:38.455Z,44.00
2023-02-12T17:18:44.521Z,39.28
2023-02-12T17:21:51.394Z,40.95
2023-02-12T17:24:57.245Z,41.47
2023-02-12T17:28:02.870Z,39.08
2023-02-12T17:31:09.595Z,47.47
2023-02-12T17:34:16.705Z,39.92
2023-02-12T17:37:22.579Z,45.22
2023-02-12T17:40:27.779Z,43.80
2023-02-12T17:43:33.071Z,107.03
2023-02-12T17:46:39.331Z,47.42
2023-02-12T17:49:44.585Z,47.83
2023-02-12T17:52:50.159Z,41.00
2023-02-12T17:55:55.507Z,33.40
2023-02-12T17:59:01.355Z,38.50
2023-02-12T18:02:12.608Z,36.70
2023-02-12T18:06:39.648Z,36.72
2023-02-12T18:09:45.540Z,38.95
2023-02-12T18:12:51.220Z,43.58
2023-02-12T18:15:56.585Z,44.60
2023-02-12T18:19:04.889Z,42.40
2023-02-12T18:22:10.564Z,40.28
2023-02-12T18:25:18.098Z,42.08
2023-02-12T18:28:24.898Z,45.17
2023-02-12T18:31:30.528Z,38.60
2023-02-12T18:34:36.128Z,41.70
2023-02-12T18:37:43.337Z,37.95
2023-02-12T18:40:49.077Z,37.55
2023-02-12T18:43:56.466Z,34.83
2023-02-12T18:47:02.164Z,38.47
2023-02-12T18:50:08.609Z,41.03
2023-02-12T18:53:14.682Z,41.97
2023-02-12T18:56:20.411Z,46.63
2023-02-12T18:59:27.399Z,38.97
2023-02-12T19:02:33.013Z,39.58
2023-02-12T19:05:38.452Z,36.08
2023-02-12T19:08:43.871Z,40.25
2023-02-12T19:11:51.126Z,37.40
2023-02-12T19:14:56.556Z,34.13
2023-02-12T19:18:02.208Z,36.95
2023-02-12T19:21:12.981Z,33.63
2023-02-12T19:24:18.320Z,34.47
2023-02-12T19:27:23.819Z,33.25
2023-02-12T19:30:30.779Z,31.45
2023-02-12T19:33:37.329Z,36.65
2023-02-12T19:36:43.591Z,39.70
2023-02-12T19:39:49.232Z,35.42
2023-02-12T19:42:54.693Z,31.33
2023-02-12T19:46:09.911Z,43.30
2023-02-12T19:49:24.492Z,36.33
2023-02-12T19:52:29.431Z,37.10
2023-02-12T19:55:36.077Z,38.47
2023-02-12T19:58:41.622Z,40.38
2023-02-12T20:01:48.509Z,37.85
2023-02-12T20:04:54.005Z,38.00
2023-02-12T20:07:59.776Z,44.13
2023-02-12T20:11:11.589Z,40.58
2023-02-12T20:14:17.870Z,47.70
2023-02-12T20:17:23.425Z,46.47
2023-02-12T20:20:29.582Z,47.80
2023-02-12T20:23:35.775Z,39.90
2023-02-12T20:26:42.425Z,43.40
2023-02-12T20:29:48.320Z,39.97
2023-02-12T20:32:54.313Z,40.05
2023-02-12T20:35:59.824Z,38.42
2023-02-12T20:39:07.740Z,41.53
2023-02-12T20:42:14.247Z,37.97
2023-02-12T20:45:20.232Z,45.22
2023-02-12T20:48:26.182Z,47.15
2023-02-12T20:51:31.669Z,45.55
2023-02-12T20:54:38.390Z,45.20
2023-02-12T20:57:45.157Z,45.47
2023-02-12T21:00:51.768Z,42.58
2023-02-12T21:03:58.081Z,47.40
2023-02-12T21:07:04.816Z,45.50
2023-02-12T21:10:11.815Z,50.10
2023-02-12T21:13:17.472Z,46.42
2023-02-12T21:16:31.486Z,44.45
2023-02-12T21:19:37.935Z,46.05
2023-02-12T21:22:43.807Z,47.67
2023-02-12T21:25:49.310Z,47.35
2023-02-12T21:28:57.957Z,52.42
2023-02-12T21:32:03.981Z,47.15
2023-02-12T21:35:09.581Z,48.67
2023-02-12T21:38:14.995Z,48.25
2023-02-12T21:41:24.608Z,47.75
2023-02-12T21:44:33.128Z,50.15
2023-02-12T21:47:39.024Z,49.13
2023-02-12T21:50:44.347Z,48.38
2023-02-12T21:53:51.724Z,47.83
2023-02-12T21:56:57.165Z,51.47
2023-02-12T22:00:02.414Z,52.17
2023-02-12T22:03:19.738Z,49.90
2023-02-12T22:06:26.125Z,42.88
2023-02-12T22:09:32.176Z,46.75
2023-02-12T22:12:37.500Z,49.35
2023-02-12T22:15:42.580Z,46.50
2023-02-12T22:18:49.346Z,47.30
2023-02-12T22:21:54.834Z,41.83
2023-02-12T22:25:00.078Z,46.90
2023-02-12T22:28:05.873Z,43.42
2023-02-12T22:31:13.481Z,47.20
2023-02-12T22:34:19.226Z,48.22
2023-02-12T22:37:24.770Z,44.65
2023-02-12T22:40:30.075Z,48.72
2023-02-12T22:43:37.308Z,46.38
2023-02-12T22:46:43.402Z,44.92
2023-02-12T22:49:48.497Z,50.72
2023-02-12T22:52:54.144Z,45.20
2023-02-12T22:56:03.390Z,47.15
2023-02-12T22:59:11.660Z,43.40
2023-02-12T23:02:16.862Z,41.50
2023-02-12T23:05:22.105Z,42.17
2023-02-12T23:08:27.564Z,43.78
2023-02-12T23:11:33.748Z,43.15
2023-02-12T23:14:39.705Z,43.70
2023-02-12T23:17:44.878Z,43.55
2023-02-12T23:20:52.119Z,43.15
2023-02-12T23:23:59.339Z,38.40
2023-02-12T23:27:04.570Z,47.88
2023-02-12T23:30:10.308Z,41.33
2023-02-12T23:33:15.949Z,44.92
2023-02-12T23:36:21.632Z,41.15
2023-02-12T23:39:26.890Z,37.55
2023-02-12T23:42:32.227Z,39.15
2023-02-12T23:45:37.694Z,38.60
2023-02-12T23:48:44.874Z,41.58
2023-02-12T23:51:50.441Z,41.70
2023-02-12T23:54:57.005Z,38.30
2023-02-12T23:58:03.563Z,39.05
